SAS53 EVRA-ENGM
Flight info
| Callsign | SAS53 |
|---|---|
| Flight time | 1h 18m |
| Altitude | 40000 |
| Route | LAPSA Y130 RASEL DCT EBURI N623 ESEBA |
| Aircraft | A333/H-SDE3GHIJ2J3J5M1RVWXY/LB2D1 |
Departure
| Time | 2026-05-01 09:22 |
|---|---|
| Airport | Riga International Airport (EVRA) |
Arrival
| Time | 2026-05-01 10:40 |
|---|---|
| Airport | Oslo-Gardermoen International Airport (ENGM) |
| Time | Latitude | Longitude | Altitude | Speed | Heading |
|---|---|---|---|---|---|
| 2026-05-01 08:55 | 56.92565 | 23.97659 | 39 ft | 0 kts | 182° |
| 2026-05-01 08:56 | 56.92542 | 23.97657 | 38 ft | 0 kts | 182° |
| 2026-05-01 08:57 | 56.92649 | 23.97854 | 40 ft | 0 kts | 91° |
| 2026-05-01 08:58 | 56.92649 | 23.97855 | 40 ft | 0 kts | 91° |
| 2026-05-01 09:01 | 56.92649 | 23.97854 | 40 ft | 0 kts | 91° |
| 2026-05-01 09:10 | 56.92649 | 23.97848 | 40 ft | 3 kts | 89° |
| 2026-05-01 09:10 | 56.92652 | 23.97813 | 38 ft | 3 kts | 113° |
| 2026-05-01 09:10 | 56.92662 | 23.97782 | 37 ft | 3 kts | 147° |
| 2026-05-01 09:11 | 56.92675 | 23.97768 | 35 ft | 0 kts | 176° |
| 2026-05-01 09:13 | 56.92658 | 23.97763 | 37 ft | 5 kts | 189° |
| 2026-05-01 09:13 | 56.92616 | 23.97723 | 40 ft | 8 kts | 231° |
| 2026-05-01 09:14 | 56.92607 | 23.97620 | 40 ft | 10 kts | 266° |
| 2026-05-01 09:14 | 56.92590 | 23.97567 | 40 ft | 5 kts | 220° |
| 2026-05-01 09:14 | 56.92548 | 23.97543 | 40 ft | 8 kts | 189° |
| 2026-05-01 09:14 | 56.92472 | 23.97528 | 40 ft | 14 kts | 185° |
| 2026-05-01 09:15 | 56.92362 | 23.97503 | 40 ft | 18 kts | 188° |
| 2026-05-01 09:15 | 56.92220 | 23.97475 | 40 ft | 23 kts | 185° |
| 2026-05-01 09:15 | 56.92069 | 23.97450 | 41 ft | 22 kts | 185° |
| 2026-05-01 09:15 | 56.91906 | 23.97432 | 41 ft | 25 kts | 184° |
| 2026-05-01 09:16 | 56.91778 | 23.97413 | 41 ft | 19 kts | 185° |
| 2026-05-01 09:16 | 56.91631 | 23.97389 | 41 ft | 23 kts | 185° |
| 2026-05-01 09:16 | 56.91458 | 23.97361 | 41 ft | 25 kts | 185° |
| 2026-05-01 09:17 | 56.91083 | 23.97298 | 42 ft | 16 kts | 185° |
| 2026-05-01 09:17 | 56.90965 | 23.97234 | 42 ft | 20 kts | 207° |
| 2026-05-01 09:17 | 56.90714 | 23.97142 | 42 ft | 9 kts | 192° |
| 2026-05-01 09:18 | 56.90656 | 23.97064 | 42 ft | 7 kts | 239° |
| 2026-05-01 09:18 | 56.90653 | 23.97049 | 42 ft | 0 kts | 248° |
| 2026-05-01 09:19 | 56.90651 | 23.97039 | 42 ft | 3 kts | 253° |
| 2026-05-01 09:19 | 56.90650 | 23.96964 | 42 ft | 9 kts | 274° |
| 2026-05-01 09:20 | 56.90738 | 23.96847 | 41 ft | 0 kts | 3° |
| 2026-05-01 09:21 | 56.90741 | 23.96847 | 41 ft | 2 kts | 3° |
| 2026-05-01 09:21 | 56.90908 | 23.96870 | 40 ft | 56 kts | 5° |
| 2026-05-01 09:21 | 56.92521 | 23.97174 | 236 ft | 158 kts | 5° |
| 2026-05-01 09:22 | 56.94754 | 23.97432 | 1910 ft | 171 kts | 2° |
| 2026-05-01 09:22 | 56.97435 | 23.97876 | 2979 ft | 216 kts | 3° |
| 2026-05-01 09:23 | 56.99015 | 23.98135 | 3524 ft | 235 kts | 4° |
| 2026-05-01 09:23 | 57.02356 | 23.98709 | 5219 ft | 247 kts | 4° |
| 2026-05-01 09:24 | 57.05807 | 23.98461 | 7088 ft | 253 kts | 340° |
| 2026-05-01 09:24 | 57.07286 | 23.96679 | 8015 ft | 260 kts | 316° |
| 2026-05-01 09:24 | 57.09098 | 23.90829 | 9880 ft | 271 kts | 299° |
| 2026-05-01 09:25 | 57.10688 | 23.84173 | 11040 ft | 303 kts | 292° |
| 2026-05-01 09:25 | 57.10554 | 23.75900 | 12105 ft | 346 kts | 261° |
| 2026-05-01 09:26 | 57.09899 | 23.71639 | 12840 ft | 353 kts | 259° |
| 2026-05-01 09:26 | 57.09633 | 23.62856 | 14312 ft | 342 kts | 294° |
| 2026-05-01 09:26 | 57.10501 | 23.58806 | 15049 ft | 340 kts | 300° |
| 2026-05-01 09:27 | 57.12503 | 23.50846 | 16566 ft | 345 kts | 301° |
| 2026-05-01 09:27 | 57.13517 | 23.46815 | 17299 ft | 349 kts | 301° |
| 2026-05-01 09:27 | 57.14533 | 23.42739 | 18029 ft | 352 kts | 301° |
| 2026-05-01 09:28 | 57.15554 | 23.38624 | 18716 ft | 355 kts | 301° |
| 2026-05-01 09:28 | 57.16583 | 23.34456 | 19318 ft | 359 kts | 301° |
| 2026-05-01 09:28 | 57.17619 | 23.30246 | 19913 ft | 363 kts | 301° |
| 2026-05-01 09:28 | 57.18664 | 23.25990 | 20513 ft | 366 kts | 301° |
| 2026-05-01 09:29 | 57.20779 | 23.17341 | 21671 ft | 373 kts | 301° |
| 2026-05-01 09:29 | 57.21846 | 23.12964 | 22268 ft | 375 kts | 301° |
| 2026-05-01 09:30 | 57.23994 | 23.04126 | 23417 ft | 381 kts | 301° |
| 2026-05-01 09:30 | 57.25081 | 22.99645 | 23943 ft | 384 kts | 301° |
| 2026-05-01 09:30 | 57.27279 | 22.90548 | 24818 ft | 391 kts | 301° |
| 2026-05-01 09:31 | 57.28390 | 22.85937 | 25260 ft | 394 kts | 300° |
| 2026-05-01 09:31 | 57.29505 | 22.81296 | 25696 ft | 396 kts | 300° |
| 2026-05-01 09:31 | 57.31753 | 22.71902 | 26552 ft | 402 kts | 300° |
| 2026-05-01 09:32 | 57.32887 | 22.67151 | 26959 ft | 405 kts | 300° |
| 2026-05-01 09:32 | 57.35401 | 22.57902 | 27797 ft | 405 kts | 304° |
| 2026-05-01 09:32 | 57.36779 | 22.53326 | 28214 ft | 407 kts | 305° |
| 2026-05-01 09:33 | 57.38191 | 22.48742 | 28610 ft | 410 kts | 305° |
| 2026-05-01 09:33 | 57.39613 | 22.44143 | 29008 ft | 413 kts | 305° |
| 2026-05-01 09:33 | 57.42472 | 22.34805 | 29799 ft | 419 kts | 305° |
| 2026-05-01 09:34 | 57.43904 | 22.30072 | 30186 ft | 422 kts | 304° |
| 2026-05-01 09:34 | 57.45341 | 22.25291 | 30531 ft | 425 kts | 304° |
| 2026-05-01 09:34 | 57.48223 | 22.15645 | 31202 ft | 429 kts | 304° |
| 2026-05-01 09:35 | 57.49670 | 22.10783 | 31526 ft | 431 kts | 304° |
| 2026-05-01 09:35 | 57.52562 | 22.01041 | 32228 ft | 434 kts | 304° |
| 2026-05-01 09:35 | 57.54025 | 21.96103 | 32562 ft | 436 kts | 304° |
| 2026-05-01 09:36 | 57.55490 | 21.91144 | 33013 ft | 435 kts | 304° |
| 2026-05-01 09:36 | 57.56940 | 21.86222 | 33499 ft | 433 kts | 304° |
| 2026-05-01 09:36 | 57.58387 | 21.81298 | 33970 ft | 432 kts | 304° |
| 2026-05-01 09:36 | 57.59824 | 21.76399 | 34403 ft | 430 kts | 304° |
| 2026-05-01 09:37 | 57.61262 | 21.71493 | 34751 ft | 430 kts | 303° |
| 2026-05-01 09:37 | 57.64123 | 21.61703 | 35425 ft | 429 kts | 303° |
| 2026-05-01 09:37 | 57.65545 | 21.56822 | 35726 ft | 428 kts | 303° |
| 2026-05-01 09:38 | 57.68383 | 21.47054 | 36368 ft | 428 kts | 303° |
| 2026-05-01 09:38 | 57.69859 | 21.42233 | 36656 ft | 427 kts | 305° |
| 2026-05-01 09:38 | 57.71404 | 21.37488 | 36933 ft | 426 kts | 306° |
| 2026-05-01 09:39 | 57.74543 | 21.28156 | 37497 ft | 426 kts | 306° |
| 2026-05-01 09:39 | 57.76122 | 21.23469 | 37773 ft | 426 kts | 306° |
| 2026-05-01 09:39 | 57.77698 | 21.18760 | 38051 ft | 426 kts | 306° |
| 2026-05-01 09:40 | 57.79271 | 21.14026 | 38327 ft | 426 kts | 306° |
| 2026-05-01 09:40 | 57.82388 | 21.04567 | 38861 ft | 426 kts | 305° |
| 2026-05-01 09:40 | 57.83933 | 20.99852 | 39076 ft | 426 kts | 305° |
| 2026-05-01 09:41 | 57.85491 | 20.95087 | 39283 ft | 426 kts | 305° |
| 2026-05-01 09:41 | 57.88581 | 20.85613 | 39658 ft | 426 kts | 304° |
| 2026-05-01 09:41 | 57.90132 | 20.80843 | 39860 ft | 426 kts | 304° |
| 2026-05-01 09:42 | 57.91676 | 20.76086 | 40025 ft | 427 kts | 304° |
| 2026-05-01 09:42 | 57.93227 | 20.71300 | 40175 ft | 428 kts | 304° |
| 2026-05-01 09:43 | 57.99434 | 20.52054 | 40272 ft | 431 kts | 304° |
| 2026-05-01 09:43 | 58.02532 | 20.42390 | 40273 ft | 430 kts | 304° |
| 2026-05-01 09:44 | 58.07372 | 20.28181 | 40272 ft | 429 kts | 306° |
| 2026-05-01 09:45 | 58.10653 | 20.18760 | 40274 ft | 429 kts | 306° |
| 2026-05-01 09:45 | 58.15540 | 20.04566 | 40256 ft | 429 kts | 305° |
| 2026-05-01 09:46 | 58.18776 | 19.95085 | 40266 ft | 429 kts | 305° |
| 2026-05-01 09:46 | 58.22006 | 19.85574 | 40265 ft | 429 kts | 305° |
| 2026-05-01 09:47 | 58.25228 | 19.76053 | 40262 ft | 429 kts | 305° |
| 2026-05-01 09:47 | 58.28427 | 19.66563 | 40260 ft | 429 kts | 305° |
| 2026-05-01 09:48 | 58.31636 | 19.57007 | 40260 ft | 429 kts | 305° |
| 2026-05-01 09:48 | 58.34744 | 19.47311 | 40258 ft | 430 kts | 301° |
| 2026-05-01 09:49 | 58.37592 | 19.37412 | 40257 ft | 430 kts | 301° |
| 2026-05-01 09:49 | 58.40436 | 19.27252 | 40258 ft | 430 kts | 300° |
| 2026-05-01 09:50 | 58.43194 | 19.17304 | 40253 ft | 430 kts | 300° |
| 2026-05-01 09:50 | 58.46020 | 19.07078 | 40252 ft | 430 kts | 300° |
| 2026-05-01 09:51 | 58.48809 | 18.96958 | 40252 ft | 429 kts | 300° |
| 2026-05-01 09:51 | 58.51571 | 18.86891 | 40254 ft | 426 kts | 300° |
| 2026-05-01 09:52 | 58.54299 | 18.76908 | 40251 ft | 426 kts | 300° |
| 2026-05-01 09:52 | 58.57028 | 18.66878 | 40251 ft | 426 kts | 300° |
| 2026-05-01 09:53 | 58.59758 | 18.56798 | 40248 ft | 426 kts | 300° |
| 2026-05-01 09:53 | 58.62481 | 18.46700 | 40241 ft | 426 kts | 299° |
| 2026-05-01 09:54 | 58.65199 | 18.36575 | 40239 ft | 426 kts | 299° |
| 2026-05-01 09:54 | 58.67907 | 18.26441 | 40239 ft | 426 kts | 299° |
| 2026-05-01 09:55 | 58.70612 | 18.16274 | 40235 ft | 426 kts | 299° |
| 2026-05-01 09:55 | 58.73311 | 18.06080 | 40235 ft | 426 kts | 299° |
| 2026-05-01 09:56 | 58.75977 | 17.95965 | 40236 ft | 426 kts | 299° |
| 2026-05-01 09:56 | 58.78650 | 17.85778 | 40239 ft | 426 kts | 298° |
| 2026-05-01 09:57 | 58.81314 | 17.75581 | 40224 ft | 425 kts | 298° |
| 2026-05-01 09:57 | 58.83964 | 17.65387 | 40236 ft | 425 kts | 298° |
| 2026-05-01 09:58 | 58.86586 | 17.55261 | 40214 ft | 425 kts | 298° |
| 2026-05-01 09:58 | 58.89223 | 17.45026 | 40232 ft | 425 kts | 298° |
| 2026-05-01 09:59 | 58.91853 | 17.34769 | 40218 ft | 425 kts | 298° |
| 2026-05-01 09:59 | 58.94459 | 17.24560 | 40229 ft | 426 kts | 297° |
| 2026-05-01 10:00 | 58.97039 | 17.14406 | 40231 ft | 426 kts | 297° |
| 2026-05-01 10:00 | 58.99645 | 17.04103 | 40231 ft | 426 kts | 297° |
| 2026-05-01 10:01 | 59.02244 | 16.93781 | 40228 ft | 426 kts | 297° |
| 2026-05-01 10:01 | 59.04837 | 16.83434 | 40217 ft | 426 kts | 297° |
| 2026-05-01 10:02 | 59.07409 | 16.73122 | 40220 ft | 425 kts | 297° |
| 2026-05-01 10:02 | 59.09972 | 16.62796 | 40223 ft | 424 kts | 297° |
| 2026-05-01 10:03 | 59.12528 | 16.52453 | 40223 ft | 424 kts | 297° |
| 2026-05-01 10:03 | 59.15073 | 16.42108 | 40218 ft | 423 kts | 296° |
| 2026-05-01 10:04 | 59.17604 | 16.31769 | 40220 ft | 423 kts | 296° |
| 2026-05-01 10:04 | 59.20127 | 16.21415 | 40215 ft | 423 kts | 296° |
| 2026-05-01 10:05 | 59.22642 | 16.11041 | 40219 ft | 422 kts | 296° |
| 2026-05-01 10:05 | 59.25151 | 16.00648 | 40220 ft | 422 kts | 296° |
| 2026-05-01 10:06 | 59.27221 | 15.92030 | 40218 ft | 422 kts | 296° |
| 2026-05-01 10:06 | 59.29710 | 15.81629 | 40215 ft | 422 kts | 296° |
| 2026-05-01 10:07 | 59.32188 | 15.71219 | 40218 ft | 422 kts | 295° |
| 2026-05-01 10:07 | 59.34658 | 15.60794 | 40222 ft | 422 kts | 295° |
| 2026-05-01 10:08 | 59.38355 | 15.45098 | 40222 ft | 422 kts | 295° |
| 2026-05-01 10:09 | 59.40791 | 15.34690 | 40226 ft | 422 kts | 295° |
| 2026-05-01 10:09 | 59.43230 | 15.24221 | 40227 ft | 422 kts | 295° |
| 2026-05-01 10:10 | 59.45667 | 15.13711 | 40229 ft | 422 kts | 295° |
| 2026-05-01 10:10 | 59.49349 | 14.97730 | 38990 ft | 432 kts | 294° |
| 2026-05-01 10:11 | 59.50584 | 14.92344 | 38298 ft | 433 kts | 294° |
| 2026-05-01 10:11 | 59.51827 | 14.86908 | 37551 ft | 435 kts | 294° |
| 2026-05-01 10:11 | 59.53066 | 14.81478 | 36790 ft | 436 kts | 294° |
| 2026-05-01 10:11 | 59.54311 | 14.76001 | 36048 ft | 438 kts | 294° |
| 2026-05-01 10:12 | 59.55559 | 14.70503 | 35326 ft | 439 kts | 294° |
| 2026-05-01 10:12 | 59.56800 | 14.65019 | 34607 ft | 441 kts | 293° |
| 2026-05-01 10:12 | 59.59295 | 14.53953 | 32985 ft | 443 kts | 293° |
| 2026-05-01 10:13 | 59.60532 | 14.48444 | 32164 ft | 444 kts | 293° |
| 2026-05-01 10:13 | 59.61793 | 14.42812 | 31522 ft | 441 kts | 293° |
| 2026-05-01 10:13 | 59.63023 | 14.37303 | 31040 ft | 435 kts | 293° |
| 2026-05-01 10:14 | 59.65412 | 14.26576 | 30093 ft | 423 kts | 292° |
| 2026-05-01 10:14 | 59.66597 | 14.21229 | 29602 ft | 417 kts | 292° |
| 2026-05-01 10:14 | 59.67734 | 14.16089 | 29148 ft | 410 kts | 292° |
| 2026-05-01 10:14 | 59.68864 | 14.10969 | 28682 ft | 404 kts | 292° |
| 2026-05-01 10:15 | 59.69977 | 14.05908 | 28229 ft | 398 kts | 292° |
| 2026-05-01 10:15 | 59.71070 | 14.00933 | 27789 ft | 392 kts | 292° |
| 2026-05-01 10:15 | 59.72147 | 13.96017 | 27379 ft | 387 kts | 292° |
| 2026-05-01 10:15 | 59.73211 | 13.91155 | 26922 ft | 382 kts | 292° |
| 2026-05-01 10:16 | 59.74259 | 13.86349 | 26466 ft | 378 kts | 291° |
| 2026-05-01 10:16 | 59.75293 | 13.81593 | 26029 ft | 373 kts | 291° |
| 2026-05-01 10:16 | 59.77318 | 13.72248 | 25184 ft | 364 kts | 291° |
| 2026-05-01 10:17 | 59.78312 | 13.67644 | 24755 ft | 361 kts | 291° |
| 2026-05-01 10:17 | 59.80265 | 13.58573 | 23922 ft | 353 kts | 291° |
| 2026-05-01 10:17 | 59.81223 | 13.54107 | 23474 ft | 350 kts | 291° |
| 2026-05-01 10:18 | 59.83103 | 13.45322 | 22655 ft | 340 kts | 291° |
| 2026-05-01 10:18 | 59.84021 | 13.41019 | 22240 ft | 336 kts | 290° |
| 2026-05-01 10:18 | 59.84925 | 13.36768 | 21855 ft | 332 kts | 290° |
| 2026-05-01 10:19 | 59.85819 | 13.32556 | 21470 ft | 328 kts | 290° |
| 2026-05-01 10:19 | 59.86701 | 13.28396 | 21097 ft | 326 kts | 290° |
| 2026-05-01 10:19 | 59.87571 | 13.24281 | 20714 ft | 326 kts | 290° |
| 2026-05-01 10:20 | 59.89315 | 13.16009 | 19949 ft | 322 kts | 289° |
| 2026-05-01 10:20 | 59.90177 | 13.11909 | 19594 ft | 319 kts | 289° |
| 2026-05-01 10:20 | 59.91079 | 13.07920 | 19256 ft | 313 kts | 294° |
| 2026-05-01 10:20 | 59.92157 | 13.04128 | 19017 ft | 315 kts | 296° |
| 2026-05-01 10:21 | 59.93292 | 13.00394 | 18790 ft | 315 kts | 297° |
| 2026-05-01 10:21 | 59.95602 | 12.92987 | 18289 ft | 314 kts | 297° |
| 2026-05-01 10:21 | 59.96758 | 12.89300 | 17892 ft | 312 kts | 298° |
| 2026-05-01 10:22 | 59.99002 | 12.82147 | 17165 ft | 302 kts | 298° |
| 2026-05-01 10:22 | 60.01201 | 12.75123 | 16459 ft | 293 kts | 298° |
| 2026-05-01 10:23 | 60.02272 | 12.71693 | 16127 ft | 289 kts | 298° |
| 2026-05-01 10:23 | 60.04370 | 12.64958 | 15475 ft | 282 kts | 298° |
| 2026-05-01 10:23 | 60.05405 | 12.61627 | 15160 ft | 281 kts | 298° |
| 2026-05-01 10:24 | 60.07458 | 12.55008 | 14521 ft | 279 kts | 298° |
| 2026-05-01 10:24 | 60.09494 | 12.48424 | 13902 ft | 276 kts | 298° |
| 2026-05-01 10:25 | 60.11495 | 12.41936 | 13241 ft | 275 kts | 298° |
| 2026-05-01 10:25 | 60.13495 | 12.35437 | 12562 ft | 272 kts | 298° |
| 2026-05-01 10:26 | 60.14489 | 12.32201 | 12264 ft | 272 kts | 298° |
| 2026-05-01 10:26 | 60.15477 | 12.28979 | 11946 ft | 271 kts | 298° |
| 2026-05-01 10:26 | 60.17449 | 12.22534 | 11362 ft | 270 kts | 298° |
| 2026-05-01 10:27 | 60.19405 | 12.16123 | 10796 ft | 269 kts | 298° |
| 2026-05-01 10:27 | 60.21345 | 12.09749 | 10225 ft | 266 kts | 298° |
| 2026-05-01 10:28 | 60.22313 | 12.06566 | 9908 ft | 266 kts | 297° |
| 2026-05-01 10:28 | 60.24233 | 12.00227 | 9291 ft | 265 kts | 297° |
| 2026-05-01 10:28 | 60.25193 | 11.97052 | 8981 ft | 264 kts | 298° |
| 2026-05-01 10:29 | 60.27095 | 11.90753 | 8362 ft | 262 kts | 298° |
| 2026-05-01 10:29 | 60.28032 | 11.87639 | 8094 ft | 257 kts | 298° |
| 2026-05-01 10:30 | 60.29836 | 11.81650 | 7606 ft | 246 kts | 298° |
| 2026-05-01 10:30 | 60.31581 | 11.75833 | 7110 ft | 238 kts | 297° |
| 2026-05-01 10:31 | 60.33264 | 11.70195 | 6621 ft | 230 kts | 297° |
| 2026-05-01 10:31 | 60.34888 | 11.64749 | 6104 ft | 224 kts | 298° |
| 2026-05-01 10:32 | 60.36478 | 11.59410 | 5595 ft | 222 kts | 298° |
| 2026-05-01 10:32 | 60.37271 | 11.56738 | 5343 ft | 222 kts | 298° |
| 2026-05-01 10:32 | 60.38857 | 11.51390 | 4862 ft | 221 kts | 298° |
| 2026-05-01 10:33 | 60.40436 | 11.46058 | 4382 ft | 221 kts | 298° |
| 2026-05-01 10:33 | 60.41825 | 11.40574 | 4037 ft | 215 kts | 280° |
| 2026-05-01 10:34 | 60.41818 | 11.37612 | 3915 ft | 210 kts | 261° |
| 2026-05-01 10:34 | 60.41512 | 11.34769 | 3780 ft | 204 kts | 256° |
| 2026-05-01 10:34 | 60.41152 | 11.32019 | 3647 ft | 201 kts | 255° |
| 2026-05-01 10:35 | 60.40425 | 11.26586 | 3473 ft | 196 kts | 250° |
| 2026-05-01 10:35 | 60.39723 | 11.24364 | 3480 ft | 184 kts | 223° |
| 2026-05-01 10:35 | 60.38666 | 11.23072 | 3458 ft | 174 kts | 205° |
| 2026-05-01 10:35 | 60.37523 | 11.22312 | 3487 ft | 173 kts | 198° |
| 2026-05-01 10:36 | 60.35212 | 11.20992 | 3470 ft | 171 kts | 199° |
| 2026-05-01 10:36 | 60.34072 | 11.20342 | 3515 ft | 171 kts | 199° |
| 2026-05-01 10:36 | 60.32937 | 11.19674 | 3405 ft | 167 kts | 200° |
| 2026-05-01 10:37 | 60.31853 | 11.19025 | 3141 ft | 160 kts | 199° |
| 2026-05-01 10:37 | 60.29840 | 11.17869 | 2702 ft | 140 kts | 198° |
| 2026-05-01 10:37 | 60.28936 | 11.17345 | 2529 ft | 132 kts | 199° |
| 2026-05-01 10:38 | 60.28052 | 11.16826 | 2358 ft | 133 kts | 200° |
| 2026-05-01 10:38 | 60.27164 | 11.16312 | 2174 ft | 133 kts | 199° |
| 2026-05-01 10:38 | 60.26282 | 11.15803 | 1989 ft | 131 kts | 198° |
| 2026-05-01 10:38 | 60.25410 | 11.15300 | 1815 ft | 130 kts | 199° |
| 2026-05-01 10:39 | 60.24539 | 11.14794 | 1647 ft | 131 kts | 199° |
| 2026-05-01 10:39 | 60.23663 | 11.14284 | 1465 ft | 132 kts | 194° |
| 2026-05-01 10:39 | 60.22827 | 11.13817 | 1278 ft | 130 kts | 195° |
| 2026-05-01 10:39 | 60.21961 | 11.13317 | 1099 ft | 130 kts | 194° |
| 2026-05-01 10:40 | 60.21090 | 11.12800 | 930 ft | 130 kts | 194° |
| 2026-05-01 10:40 | 60.20226 | 11.12302 | 745 ft | 128 kts | 194° |
| 2026-05-01 10:40 | 60.19423 | 11.11869 | 687 ft | 100 kts | 194° |
| 2026-05-01 10:40 | 60.18945 | 11.11576 | 685 ft | 43 kts | 196° |
| 2026-05-01 10:41 | 60.18788 | 11.11483 | 681 ft | 18 kts | 197° |
| 2026-05-01 10:41 | 60.18654 | 11.11401 | 680 ft | 23 kts | 197° |
| 2026-05-01 10:41 | 60.18442 | 11.11082 | 680 ft | 15 kts | 262° |
| 2026-05-01 10:42 | 60.18451 | 11.10980 | 682 ft | 0 kts | 292° |
| 2026-05-01 10:42 | 60.18456 | 11.10962 | 681 ft | 3 kts | 297° |
| 2026-05-01 10:42 | 60.18484 | 11.10929 | 684 ft | 7 kts | 345° |
| 2026-05-01 10:42 | 60.18547 | 11.10948 | 684 ft | 12 kts | 14° |
| 2026-05-01 10:43 | 60.18640 | 11.11000 | 679 ft | 16 kts | 16° |
| 2026-05-01 10:43 | 60.18764 | 11.11071 | 682 ft | 20 kts | 17° |
| 2026-05-01 10:43 | 60.18907 | 11.11159 | 684 ft | 23 kts | 14° |
| 2026-05-01 10:43 | 60.19023 | 11.11222 | 686 ft | 13 kts | 16° |
| 2026-05-01 10:44 | 60.19126 | 11.11283 | 690 ft | 18 kts | 17° |
| 2026-05-01 10:44 | 60.19261 | 11.11365 | 685 ft | 23 kts | 17° |
| 2026-05-01 10:44 | 60.19370 | 11.11370 | 681 ft | 11 kts | 309° |
| 2026-05-01 10:44 | 60.19415 | 11.11225 | 680 ft | 12 kts | 296° |
| 2026-05-01 10:45 | 60.19415 | 11.11141 | 683 ft | 4 kts | 238° |
| 2026-05-01 10:45 | 60.19379 | 11.11098 | 682 ft | 8 kts | 201° |
| 2026-05-01 10:45 | 60.19355 | 11.11081 | 684 ft | 3 kts | 199° |
| 2026-05-01 10:45 | 60.19338 | 11.11070 | 684 ft | 2 kts | 197° |
| 2026-05-01 10:46 | 60.19329 | 11.11065 | 685 ft | 0 kts | 197° |